CYHU/YHU METAR and TAF weather

Enter ICAO airport designator
Station Type Date Time Source
CYHU METAR 2021/03/01 10:00 UTC NOAA

CYHU 011000Z AUTO 19021G31KT 5SM -RA BR BKN025 OVC030 03/02 A2949 RMK PRESFR SLP988


Station Type Date Time Source
CYHU Decoded METAR 2021/03/01 10:00 UTC NOAA

Saint Hubert Airport , Canada (CYHU) 45-31N 073-25W
Mar 01, 2021 - 05:00 AM EST / 2021.03.01 1000 UTC
Wind: from the S (190 degrees) at 24 MPH (21 KT) gusting to 36 MPH (31 KT):0
Visibility: 5 mile(s):0
Sky conditions: overcast
Weather: light rain; mist
Temperature: 37 F (3 C)
Dew Point: 35 F (2 C)
Relative Humidity: 93%
Pressure (altimeter): 29.49 in. Hg (998 hPa)
Pressure tendency: falling rapidly
ob: CYHU 011000Z AUTO 19021G31KT 5SM -RA BR BKN025 OVC030 03/02 A2949 RMK PRESFR SLP988
cycle: 10

Station Type Date Time Source
CYHU TAF 2021/03/01 06:45 UTC NOAA

TAF TAF CYHU 010542Z 0106/0206 17020G30KT P6SM BKN050 OVC070
TEMPO 0106/0108 5SM -RA BR BKN020 OVC050
FM010800 17020G30KT P6SM -DZ SCT012 OVC025
TEMPO 0108/0112 2SM -SHRA BR BKN009 OVC012
FM011200 18018G28KT 4SM -DZ BR SCT006 OVC009
FM011600 25015G25KT 6SM -DZ BR SCT006 OVC012
FM011900 25020G30KT 3SM -SNRA BR BKN012 OVC025
FM012200 30020KT P6SM BKN050
FM020300 32018G28KT P6SM BKN040 BKN100
RMK FCST BASED ON AUTO OBS. NXT FCST BY 011200Z

Example: see airport list